Melocheville, Canada
Current Conditions -  °F | °C
As of 7:00 AM on Saturday 20 Dec 2014 (Local Time) from CYUL Reporting Station
Few Clouds Few Clouds  
Wind Chill:   Ceiling: Unl
Heat Index:   Visibility: 15mi
Dew Point:   Wind: 5mph
Humidity: 85%   Direction: 330°NNW
Pressure: 30.33"   Gusts: NA
Location:  45.32°N, 73.93°W
Report Text: CYUL 201200Z 33004KT 15SM FEW007 FEW240 M13/M15 A3033 RMK SF1CI1 SF TR CI TR SLP272
Loading
Personal Weather Stations






























Interactive Weather Map New forecast layout! Learn more

10-Day Weather Forecast

Advertisements
Track Severe Weather on mobile